Time;durP1;ratioP1;P1;durP2;ratioP2;P2;SDS_P1;SDS_P2;PMS_P1;PMS_P2;Temp;Humidity;BMP_temperature;BMP_pressure;BME280_temperature;BME280_humidity;BME280_pressure;Samples;Min_cycle;Max_cycle;Signal;HPM_P1;HPM_P2
2024/02/07 00:05:44;;;;;;;6.35;1.70;;;10.90;99.90;;;;;;5084163;23;20294;-94
2024/02/07 00:07:58;;;;;;;7.00;1.55;;;10.90;99.90;;;;;;5059456;23;20214;-96
2024/02/07 00:10:31;;;;;;;6.40;1.15;;;10.90;99.90;;;;;;5079619;23;20134;-95
2024/02/07 00:13:07;;;;;;;4.43;1.83;;;10.90;99.90;;;;;;5034243;23;20148;-95
2024/02/07 00:15:29;;;;;;;4.57;1.63;;;11.00;99.90;;;;;;5082918;23;20180;-94
2024/02/07 00:17:46;;;;;;;10.32;2.08;;;11.00;99.90;;;;;;5057727;23;20202;-96
2024/02/07 00:20:44;;;;;;;11.93;2.13;;;11.00;99.90;;;;;;5083957;23;20157;-94
2024/02/07 00:54:38;;;;;;;;;;;;;;;;;;;;;
2024/02/07 01:04:55;;;;;;;;;;;;;;;;;;;;;
2024/02/07 01:08:50;;;;;;;;;;;;;;;;;;;;;
2024/02/07 01:19:34;;;;;;;3.63;1.60;;;11.00;99.90;;;;;;5029283;23;20205;-96
2024/02/07 01:26:03;;;;;;;;;;;;;;;;;;;;;
2024/02/07 01:32:10;;;;;;;3.88;1.45;;;11.10;99.90;;;;;;4783433;24;20519;-96
2024/02/07 01:38:17;;;;;;;;;;;;;;;;;;;;;
2024/02/07 01:41:19;;;;;;;4.85;1.77;;;11.00;99.90;;;;;;4752879;24;20170;-96
2024/02/07 01:43:37;;;;;;;5.18;1.83;;;11.00;99.90;;;;;;4811572;24;20264;-96
2024/02/07 01:46:14;;;;;;;;;;;;;;;;;;;;;
2024/02/07 01:48:31;;;;;;;6.50;1.67;;;11.20;99.90;;;;;;4953333;24;20195;-96
2024/02/07 01:54:12;;;;;;;;;;;;;;;;;;;;;
2024/02/07 01:56:16;;;;;;;8.90;1.90;;;11.10;99.90;;;;;;4965332;23;20160;-96
2024/02/07 01:58:28;;;;;;;2.75;1.17;;;11.20;99.90;;;;;;4955286;23;20197;-96
2024/02/07 02:00:43;;;;;;;8.63;1.50;;;11.10;99.90;;;;;;4953678;24;20244;-96
2024/02/07 02:03:17;;;;;;;4.20;1.98;;;11.10;99.90;;;;;;5048916;23;20158;-96
2024/02/07 02:05:57;;;;;;;;;;;;;;;;;;;;;
2024/02/07 02:08:21;;;;;;;2.67;1.17;;;11.20;99.90;;;;;;5044929;23;20178;-95
2024/02/07 02:10:25;;;;;;;7.00;1.65;;;11.20;99.90;;;;;;5022806;23;20639;-96
2024/02/07 02:12:45;;;;;;;3.70;1.67;;;11.20;99.90;;;;;;5000511;23;20164;-96
2024/02/07 02:14:54;;;;;;;2.28;1.25;;;11.20;99.90;;;;;;5026047;23;20155;-96
2024/02/07 02:16:55;;;;;;;7.80;1.45;;;11.20;99.90;;;;;;5045568;23;20178;-95
2024/02/07 02:18:58;;;;;;;4.22;1.70;;;11.20;99.90;;;;;;5022267;23;20257;-93
2024/02/07 02:21:04;;;;;;;5.55;1.85;;;11.10;99.90;;;;;;5022566;23;20156;-95
2024/02/07 02:23:43;;;;;;;4.22;1.83;;;11.10;99.90;;;;;;5046235;23;20247;-92
2024/02/07 02:25:59;;;;;;;2.28;1.40;;;11.10;99.90;;;;;;5045490;23;20194;-95
2024/02/07 02:28:22;;;;;;;9.90;1.77;;;11.10;99.90;;;;;;5021748;23;20234;-96
2024/02/07 02:30:40;;;;;;;7.65;1.45;;;11.10;99.90;;;;;;5021846;23;20166;-95
2024/02/07 02:32:43;;;;;;;7.10;1.55;;;11.20;99.90;;;;;;5021571;23;20155;-95
2024/02/07 02:34:44;;;;;;;6.13;1.88;;;11.30;99.90;;;;;;5022273;23;20158;-96
2024/02/07 02:36:45;;;;;;;4.72;1.48;;;11.30;99.90;;;;;;5021666;23;20159;-95
2024/02/07 02:38:46;;;;;;;4.60;1.40;;;11.20;99.90;;;;;;5023088;23;20154;-95
2024/02/07 02:40:52;;;;;;;1.52;1.13;;;11.20;99.90;;;;;;5021739;23;20190;-95
2024/02/07 02:43:00;;;;;;;3.92;1.40;;;11.20;99.90;;;;;;5047031;23;20158;-95
2024/02/07 02:45:06;;;;;;;12.35;1.95;;;11.20;99.90;;;;;;5045468;23;20205;-95
2024/02/07 02:47:07;;;;;;;3.42;1.30;;;11.20;99.90;;;;;;5021549;23;20205;-95
2024/02/07 02:49:09;;;;;;;6.60;1.42;;;11.10;99.90;;;;;;5021443;23;20560;-96
2024/02/07 02:51:10;;;;;;;5.95;1.52;;;11.10;99.90;;;;;;5046170;23;20538;-95
2024/02/07 02:53:12;;;;;;;7.43;1.85;;;11.20;99.90;;;;;;5021271;23;20342;-96
2024/02/07 02:55:13;;;;;;;4.25;1.38;;;11.10;99.90;;;;;;5021461;23;20182;-95
2024/02/07 02:57:16;;;;;;;6.03;1.67;;;11.20;99.90;;;;;;5044785;23;20185;-95
2024/02/07 02:59:18;;;;;;;6.45;1.30;;;11.20;99.90;;;;;;5044949;23;20606;-94
2024/02/07 03:01:19;;;;;;;2.65;1.52;;;11.10;99.90;;;;;;5021454;23;20155;-94
2024/02/07 03:03:20;;;;;;;10.18;1.33;;;11.10;99.90;;;;;;5044896;23;20146;-96
2024/02/07 03:07:54;;;;;;;3.17;1.67;;;11.10;99.90;;;;;;5069870;23;20186;-94
2024/02/07 03:09:58;;;;;;;3.85;1.55;;;11.10;99.90;;;;;;5046300;23;20573;-95
2024/02/07 03:11:59;;;;;;;3.80;1.42;;;11.20;99.90;;;;;;5022556;23;20166;-95
2024/02/07 03:14:12;;;;;;;8.60;1.77;;;11.20;99.90;;;;;;5045524;23;20217;-96
2024/02/07 03:16:13;;;;;;;7.82;1.40;;;11.20;99.90;;;;;;5046830;23;20168;-94
2024/02/07 03:18:14;;;;;;;9.13;2.42;;;11.30;99.90;;;;;;5045100;23;20521;-95
2024/02/07 03:20:16;;;;;;;2.88;1.17;;;11.30;99.90;;;;;;5022815;23;20186;-96
2024/02/07 03:22:22;;;;;;;5.10;1.50;;;11.30;99.90;;;;;;5046399;23;20151;-95
2024/02/07 03:24:25;;;;;;;3.33;1.13;;;11.20;99.90;;;;;;5044309;23;20158;-95
2024/02/07 03:26:27;;;;;;;1.67;0.95;;;11.20;99.90;;;;;;5020818;23;20225;-95
2024/02/07 03:28:30;;;;;;;5.93;2.08;;;11.20;99.90;;;;;;5044376;23;20174;-94
2024/02/07 03:30:32;;;;;;;2.55;1.17;;;11.20;99.90;;;;;;5021440;23;20199;-96
2024/02/07 03:32:34;;;;;;;3.25;1.25;;;11.10;99.90;;;;;;5045140;23;20246;-94
2024/02/07 03:34:37;;;;;;;10.30;1.23;;;11.20;99.90;;;;;;5045399;23;20180;-95
2024/02/07 03:36:41;;;;;;;1.27;0.68;;;11.20;99.90;;;;;;5070482;23;20639;-95
2024/02/07 03:38:42;;;;;;;1.92;0.73;;;11.10;99.90;;;;;;5022505;23;20179;-95
2024/02/07 03:40:45;;;;;;;4.03;1.35;;;11.10;99.90;;;;;;5021722;23;20155;-95
2024/02/07 03:42:46;;;;;;;3.42;1.35;;;11.10;99.90;;;;;;5021945;23;20233;-94
2024/02/07 03:44:58;;;;;;;1.23;0.80;;;11.10;99.90;;;;;;5020979;23;20206;-95
2024/02/07 03:47:00;;;;;;;3.33;1.33;;;11.00;99.90;;;;;;5020987;23;20638;-95
2024/02/07 03:49:02;;;;;;;2.10;1.35;;;11.10;99.90;;;;;;5021219;23;20713;-92
2024/02/07 03:51:04;;;;;;;6.78;1.17;;;11.20;99.90;;;;;;5044876;23;20165;-94
2024/02/07 03:53:05;;;;;;;1.67;1.00;;;11.10;99.90;;;;;;5045845;23;20229;-96
2024/02/07 03:55:12;;;;;;;5.45;1.50;;;11.10;99.90;;;;;;5021012;23;20185;-96
2024/02/07 03:57:15;;;;;;;1.85;1.25;;;11.20;99.90;;;;;;5044919;23;20170;-96
2024/02/07 03:59:18;;;;;;;7.75;1.55;;;11.20;99.90;;;;;;5046217;23;20194;-96
2024/02/07 04:01:20;;;;;;;2.88;1.02;;;11.30;99.90;;;;;;5047452;23;20153;-94
2024/02/07 04:03:21;;;;;;;3.25;1.17;;;11.20;99.90;;;;;;5044910;23;20602;-95
2024/02/07 04:05:23;;;;;;;4.88;1.60;;;11.20;99.90;;;;;;5021299;23;20174;-96
2024/02/07 04:07:27;;;;;;;5.05;1.50;;;11.20;99.90;;;;;;5021756;23;20254;-96
2024/02/07 04:09:28;;;;;;;1.50;0.88;;;11.20;99.90;;;;;;5023187;23;20159;-95
2024/02/07 05:16:29;;;;;;;1.13;0.67;;;7.30;99.90;;;;;;5070217;23;20229;-94
2024/02/07 05:18:30;;;;;;;2.27;0.90;;;7.40;99.90;;;;;;5022028;23;20167;-94
2024/02/07 05:20:31;;;;;;;1.23;0.47;;;7.40;99.90;;;;;;5045821;23;20198;-93
2024/02/07 05:22:32;;;;;;;1.23;0.80;;;7.40;99.90;;;;;;5022007;23;20169;-94
2024/02/07 05:24:34;;;;;;;0.93;0.77;;;7.50;99.90;;;;;;5021890;23;20159;-93
2024/02/07 05:26:36;;;;;;;1.97;1.00;;;7.50;99.90;;;;;;5021875;23;20195;-93
2024/02/07 05:28:37;;;;;;;2.27;1.07;;;7.60;99.90;;;;;;5045769;23;20178;-92
2024/02/07 05:30:39;;;;;;;2.13;1.03;;;7.70;99.90;;;;;;5070052;23;20217;-93
2024/02/07 05:32:44;;;;;;;4.27;1.30;;;7.70;99.90;;;;;;5045762;23;20150;-94
2024/02/07 05:34:45;;;;;;;4.33;1.57;;;7.70;99.90;;;;;;5045724;23;20162;-93
2024/02/07 05:36:47;;;;;;;1.87;1.13;;;7.70;99.90;;;;;;5045897;23;20207;-94
2024/02/07 05:38:48;;;;;;;1.67;1.20;;;7.80;99.90;;;;;;5021978;23;20155;-94
2024/02/07 05:40:49;;;;;;;2.37;1.40;;;8.00;99.90;;;;;;5021783;23;20153;-94
2024/02/07 05:42:50;;;;;;;1.87;1.07;;;8.00;99.90;;;;;;5021717;23;20159;-93
2024/02/07 05:44:51;;;;;;;3.20;1.70;;;8.00;99.90;;;;;;5021769;23;20165;-93
2024/02/07 05:46:52;;;;;;;4.50;1.57;;;8.00;99.90;;;;;;5021796;23;20214;-93
2024/02/07 05:48:53;;;;;;;1.93;1.40;;;8.10;99.90;;;;;;5021643;23;20185;-93
2024/02/07 05:50:54;;;;;;;2.17;1.53;;;8.00;99.90;;;;;;5021753;23;20170;-92
2024/02/07 05:52:55;;;;;;;3.00;1.67;;;7.90;99.90;;;;;;5021841;23;20257;-93
2024/02/07 05:54:56;;;;;;;4.33;2.30;;;7.90;99.90;;;;;;5021784;23;20159;-94
2024/02/07 05:56:57;;;;;;;3.70;2.07;;;8.00;99.90;;;;;;5021619;23;20183;-92
2024/02/07 05:58:59;;;;;;;4.90;2.57;;;7.90;99.90;;;;;;5022019;23;20608;-94
2024/02/07 06:01:00;;;;;;;6.30;2.40;;;7.70;99.90;;;;;;5021869;23;20252;-93
2024/02/07 06:03:05;;;;;;;7.10;2.63;;;7.50;99.90;;;;;;5021340;23;20697;-93
2024/02/07 06:05:06;;;;;;;3.23;2.00;;;7.50;99.90;;;;;;5045598;23;20581;-94
2024/02/07 06:07:08;;;;;;;4.77;2.27;;;7.30;99.90;;;;;;5021424;23;20195;-94
2024/02/07 06:09:09;;;;;;;2.97;1.43;;;7.20;99.90;;;;;;5022641;23;20230;-94
2024/02/07 06:11:10;;;;;;;3.20;1.30;;;7.10;99.90;;;;;;5022872;23;20171;-93
2024/02/07 06:13:11;;;;;;;1.60;1.00;;;7.00;99.90;;;;;;5021977;23;20155;-94
2024/02/07 06:15:12;;;;;;;5.70;1.60;;;6.90;99.90;;;;;;5022062;23;20159;-94
2024/02/07 06:17:13;;;;;;;2.07;1.50;;;6.90;99.90;;;;;;5045378;23;20190;-93
2024/02/07 06:19:17;;;;;;;4.73;1.60;;;6.90;99.90;;;;;;5021788;23;20157;-93
2024/02/07 06:21:19;;;;;;;2.30;1.23;;;7.00;99.90;;;;;;5045833;23;20283;-94
2024/02/07 06:23:20;;;;;;;3.40;1.53;;;6.90;99.90;;;;;;5024243;23;20654;-94
2024/02/07 06:25:21;;;;;;;1.87;1.03;;;6.80;99.90;;;;;;5021848;23;20162;-93
2024/02/07 06:27:22;;;;;;;4.83;0.93;;;6.80;99.90;;;;;;5021467;23;20321;-94
2024/02/07 06:29:24;;;;;;;0.37;0.30;;;6.70;99.90;;;;;;5045651;23;20158;-94
2024/02/07 06:31:25;;;;;;;2.53;0.67;;;6.70;99.90;;;;;;5045619;23;20155;-95
2024/02/07 06:33:25;;;;;;;2.47;0.73;;;6.70;99.90;;;;;;5045788;23;20177;-94
2024/02/07 06:35:26;;;;;;;2.53;0.83;;;6.60;99.90;;;;;;5045579;23;20166;-93
2024/02/07 06:37:28;;;;;;;5.67;0.67;;;6.70;99.90;;;;;;5021136;23;20175;-95
2024/02/07 06:39:29;;;;;;;1.23;0.63;;;6.70;99.90;;;;;;5046624;23;20158;-94
2024/02/07 06:41:30;;;;;;;1.03;0.63;;;6.70;99.90;;;;;;5023370;23;20233;-93
2024/02/07 06:43:31;;;;;;;1.00;0.50;;;6.70;99.90;;;;;;5021573;23;20159;-94
2024/02/07 06:45:32;;;;;;;0.80;0.50;;;6.70;99.90;;;;;;5045159;23;20170;-93
2024/02/07 06:47:33;;;;;;;1.50;0.73;;;6.70;99.90;;;;;;5021887;23;20267;-94
2024/02/07 06:49:37;;;;;;;2.87;0.80;;;6.70;99.90;;;;;;5045072;23;20244;-94
2024/02/07 06:51:39;;;;;;;1.57;1.10;;;6.80;99.90;;;;;;5021850;23;20158;-94
2024/02/07 06:53:40;;;;;;;1.80;0.60;;;6.70;99.90;;;;;;5022288;23;20155;-94
2024/02/07 06:55:41;;;;;;;1.90;0.77;;;6.60;99.90;;;;;;5022480;23;20166;-93
2024/02/07 06:57:42;;;;;;;1.60;0.80;;;6.60;99.90;;;;;;5045082;23;20205;-94
2024/02/07 06:59:43;;;;;;;2.77;1.13;;;6.60;99.90;;;;;;5022505;23;20598;-94
2024/02/07 07:01:44;;;;;;;1.53;1.10;;;6.60;99.90;;;;;;5022406;23;20185;-94
2024/02/07 07:03:50;;;;;;;1.07;0.50;;;6.60;99.90;;;;;;5021404;23;20163;-95
2024/02/07 07:05:52;;;;;;;1.73;0.90;;;6.60;99.90;;;;;;5021560;23;20289;-93
2024/02/07 07:07:53;;;;;;;1.47;0.93;;;6.70;99.90;;;;;;5048384;23;20193;-95
2024/02/07 07:09:54;;;;;;;1.37;0.67;;;6.60;99.90;;;;;;5045728;23;20597;-95
2024/02/07 07:11:55;;;;;;;1.90;1.10;;;6.50;99.90;;;;;;5021990;23;20166;-95
2024/02/07 07:13:57;;;;;;;1.53;0.53;;;6.50;99.90;;;;;;5022338;23;20147;-95
2024/02/07 07:15:58;;;;;;;1.77;0.67;;;6.50;99.90;;;;;;5021657;23;20234;-94
2024/02/07 07:18:00;;;;;;;2.70;1.37;;;6.50;99.90;;;;;;5044925;23;20184;-96
2024/02/07 07:20:04;;;;;;;2.47;1.60;;;6.50;99.90;;;;;;5048236;23;20490;-95
2024/02/07 07:22:08;;;;;;;2.37;0.83;;;6.40;99.90;;;;;;5022022;23;20154;-94
2024/02/07 07:24:09;;;;;;;1.60;0.70;;;6.40;99.90;;;;;;5022072;23;20151;-95
2024/02/07 07:26:10;;;;;;;2.53;0.80;;;6.40;99.90;;;;;;5024143;23;20281;-94
2024/02/07 07:28:11;;;;;;;3.43;1.20;;;6.30;99.90;;;;;;5022845;23;20182;-95
2024/02/07 07:30:13;;;;;;;2.23;0.60;;;6.30;99.90;;;;;;5045721;23;20158;-96
2024/02/07 07:32:14;;;;;;;1.60;0.70;;;6.20;99.90;;;;;;5046150;23;20178;-95
2024/02/07 07:34:15;;;;;;;4.30;0.90;;;6.30;99.90;;;;;;5022179;23;20174;-95
2024/02/07 07:36:26;;;;;;;2.10;0.70;;;6.40;99.90;;;;;;5023369;23;20159;-95
2024/02/07 07:38:27;;;;;;;2.20;0.73;;;6.50;99.90;;;;;;5022974;23;20606;-96
2024/02/07 07:40:34;;;;;;;2.10;1.03;;;6.50;99.90;;;;;;5045152;23;20182;-94
2024/02/07 07:42:35;;;;;;;1.67;1.07;;;6.50;99.90;;;;;;5021661;23;20222;-94
2024/02/07 07:44:42;;;;;;;1.23;0.67;;;6.40;99.90;;;;;;5045718;23;20158;-96
2024/02/07 07:46:47;;;;;;;2.17;1.33;;;6.40;99.90;;;;;;5045681;23;20268;-95
2024/02/07 07:49:00;;;;;;;1.93;1.10;;;6.40;99.90;;;;;;5047025;23;20158;-96
2024/02/07 07:51:11;;;;;;;;;;;;;;;;;;;;;
2024/02/07 07:53:28;;;;;;;3.77;0.60;;;6.30;99.90;;;;;;5070630;23;20168;-95
2024/02/07 07:55:36;;;;;;;0.30;0.30;;;6.20;99.90;;;;;;5024462;23;20159;-96
2024/02/07 07:57:40;;;;;;;0.50;0.30;;;6.00;99.90;;;;;;5025269;23;20201;-94
2024/02/07 07:59:44;;;;;;;1.43;0.27;;;6.00;99.90;;;;;;5032664;23;20155;-93
2024/02/07 08:01:45;;;;;;;0.20;0.17;;;6.00;99.90;;;;;;5022707;23;20165;-94
2024/02/07 08:03:46;;;;;;;0.50;0.30;;;5.80;99.90;;;;;;5045538;23;20185;-94
2024/02/07 08:05:47;;;;;;;4.23;0.67;;;5.80;99.90;;;;;;5070530;23;22425;-95
2024/02/07 08:07:50;;;;;;;3.53;0.70;;;5.60;99.90;;;;;;5045266;23;20198;-94
2024/02/07 08:09:51;;;;;;;0.20;0.20;;;5.60;99.90;;;;;;5044258;23;20166;-93
2024/02/07 08:11:51;;;;;;;2.33;0.33;;;5.50;99.90;;;;;;5045347;23;20190;-93
2024/02/07 08:13:52;;;;;;;3.37;0.47;;;5.60;99.90;;;;;;5045726;23;20159;-93
2024/02/07 08:15:54;;;;;;;1.50;0.23;;;5.60;99.90;;;;;;5047839;23;20150;-95
2024/02/07 08:17:55;;;;;;;0.60;0.30;;;5.60;99.90;;;;;;5047407;23;20274;-95
2024/02/07 08:19:56;;;;;;;0.80;0.40;;;5.70;99.90;;;;;;5069145;23;20197;-96
2024/02/07 08:21:57;;;;;;;3.90;0.87;;;5.70;99.90;;;;;;5046081;23;20658;-95
2024/02/07 08:24:02;;;;;;;0.40;0.10;;;5.70;99.90;;;;;;5046952;23;20154;-96
2024/02/07 08:26:03;;;;;;;1.33;0.47;;;5.70;99.90;;;;;;5070426;23;20528;-95
2024/02/07 08:28:10;;;;;;;1.37;0.40;;;5.70;99.90;;;;;;5046633;23;20178;-94
2024/02/07 08:30:11;;;;;;;3.47;0.83;;;5.80;99.90;;;;;;5069464;23;20162;-96
2024/02/07 08:32:12;;;;;;;1.27;0.50;;;5.60;99.90;;;;;;5044634;23;20229;-95
2024/02/07 08:34:17;;;;;;;0.20;0.20;;;5.70;99.90;;;;;;5069307;23;20158;-94
2024/02/07 08:36:18;;;;;;;10.37;0.50;;;5.80;99.90;;;;;;5048456;23;20189;-94
2024/02/07 08:38:26;;;;;;;0.40;0.20;;;5.60;99.90;;;;;;5046711;23;20186;-96
2024/02/07 08:40:32;;;;;;;0.00;0.00;;;5.60;99.90;;;;;;5070593;23;20233;-96
2024/02/07 08:42:47;;;;;;;4.90;0.33;;;5.70;99.90;;;;;;5072588;23;20221;-96
2024/02/07 08:44:48;;;;;;;0.87;0.20;;;5.70;99.90;;;;;;5069865;23;20612;-96
2024/02/07 08:47:12;;;;;;;4.47;0.70;;;5.60;99.90;;;;;;5047538;23;20183;-95
2024/02/07 08:50:00;;;;;;;4.50;0.27;;;5.70;99.90;;;;;;5047925;23;20158;-96
2024/02/07 08:52:04;;;;;;;0.93;0.30;;;5.80;99.90;;;;;;5041289;23;20220;-95
2024/02/07 08:54:28;;;;;;;0.40;0.30;;;5.80;99.90;;;;;;5046256;23;20147;-96
2024/02/07 08:56:53;;;;;;;1.90;0.40;;;5.70;99.90;;;;;;5029325;23;20640;-96
2024/02/07 08:59:04;;;;;;;2.73;0.77;;;5.80;99.90;;;;;;5028185;23;20159;-95
2024/02/07 09:01:11;;;;;;;1.17;0.30;;;5.90;99.90;;;;;;5046605;23;20278;-95
2024/02/07 09:03:40;;;;;;;0.53;0.30;;;6.10;99.90;;;;;;5047307;23;20150;-96
2024/02/07 09:09:10;;;;;;;;;;;;;;;;;;;;;
2024/02/07 09:16:30;;;;;;;0.97;0.57;;;6.20;99.90;;;;;;5044296;23;20165;-96
2024/02/07 09:18:38;;;;;;;1.77;0.60;;;6.20;99.90;;;;;;5046139;23;20154;-96
2024/02/07 09:21:03;;;;;;;1.43;0.93;;;6.40;99.90;;;;;;5045541;23;20166;-96
2024/02/07 09:23:07;;;;;;;0.20;0.10;;;6.40;99.90;;;;;;5047310;23;20190;-95
2024/02/07 09:25:08;;;;;;;0.50;0.43;;;6.30;99.90;;;;;;5046578;23;20620;-94
2024/02/07 09:27:14;;;;;;;4.87;0.93;;;6.20;99.90;;;;;;5023699;23;20198;-96
2024/02/07 09:29:15;;;;;;;1.37;0.73;;;5.90;99.90;;;;;;5074575;23;20217;-94
2024/02/07 09:31:16;;;;;;;1.53;0.80;;;5.90;99.90;;;;;;5048699;23;20513;-93
2024/02/07 09:33:21;;;;;;;0.90;0.63;;;6.00;99.90;;;;;;5047586;23;20241;-94
2024/02/07 09:35:48;;;;;;;2.50;0.87;;;6.00;99.90;;;;;;5024473;23;20151;-96
2024/02/07 09:37:52;;;;;;;0.97;0.43;;;5.80;99.90;;;;;;5048052;23;20182;-96
2024/02/07 09:40:24;;;;;;;;;;;;;;;;;;;;;
2024/02/07 09:42:37;;;;;;;0.67;0.30;;;5.90;99.90;;;;;;5043701;23;20176;-94
2024/02/07 09:45:04;;;;;;;2.10;0.43;;;5.70;99.90;;;;;;5048879;23;20161;-95
2024/02/07 09:47:18;;;;;;;1.23;0.57;;;5.70;99.90;;;;;;5047533;23;20190;-95
2024/02/07 09:49:24;;;;;;;4.97;1.43;;;5.60;99.90;;;;;;5046211;23;20178;-94
2024/02/07 09:51:45;;;;;;;2.73;0.37;;;5.70;99.90;;;;;;5070691;23;20160;-96
2024/02/07 09:53:47;;;;;;;13.43;1.33;;;5.70;99.90;;;;;;5070665;23;20157;-95
2024/02/07 09:55:50;;;;;;;1.40;0.57;;;5.70;99.90;;;;;;5046047;23;20154;-94
2024/02/07 09:57:52;;;;;;;6.43;0.20;;;5.80;99.90;;;;;;5070313;23;20173;-94
2024/02/07 09:59:53;;;;;;;0.30;0.10;;;5.70;99.90;;;;;;5047139;23;20234;-95
2024/02/07 10:01:56;;;;;;;6.57;0.40;;;5.80;99.90;;;;;;5047290;23;20167;-96
2024/02/07 10:04:01;;;;;;;3.03;0.50;;;5.80;99.90;;;;;;5048454;23;20241;-95
2024/02/07 10:06:07;;;;;;;5.73;0.67;;;5.80;99.90;;;;;;5045677;23;20705;-95
2024/02/07 10:08:10;;;;;;;3.80;0.50;;;5.80;99.90;;;;;;5047846;23;20278;-95
2024/02/07 10:10:16;;;;;;;0.50;0.23;;;5.70;99.90;;;;;;5045980;23;20154;-95
2024/02/07 10:12:17;;;;;;;5.93;0.77;;;5.70;99.90;;;;;;5048167;23;20166;-94
2024/02/07 10:14:18;;;;;;;1.47;0.87;;;5.70;99.90;;;;;;5024037;23;20166;-96
2024/02/07 10:16:22;;;;;;;1.80;0.70;;;5.80;99.90;;;;;;5021545;23;20162;-95
2024/02/07 10:18:23;;;;;;;2.80;0.57;;;5.80;99.90;;;;;;5021239;23;20174;-93
2024/02/07 10:20:24;;;;;;;4.07;0.57;;;5.70;99.90;;;;;;5021617;23;20181;-94
2024/02/07 10:22:25;;;;;;;0.87;0.60;;;5.70;99.90;;;;;;5021658;23;20159;-96
2024/02/07 10:24:30;;;;;;;19.03;1.60;;;5.70;99.90;;;;;;5045918;23;20165;-96
2024/02/07 10:26:31;;;;;;;3.60;0.83;;;5.70;99.90;;;;;;5022449;23;20191;-95
2024/02/07 10:28:32;;;;;;;7.97;0.90;;;5.90;99.90;;;;;;5046105;23;20699;-95
2024/02/07 10:30:34;;;;;;;1.50;0.43;;;5.90;99.90;;;;;;5021846;23;20159;-95
2024/02/07 10:32:36;;;;;;;6.17;0.77;;;5.90;99.90;;;;;;5025181;23;20527;-93
2024/02/07 10:34:37;;;;;;;8.80;0.83;;;5.90;99.90;;;;;;5045380;23;20170;-94
2024/02/07 10:36:41;;;;;;;2.47;0.53;;;5.80;99.90;;;;;;5023677;23;20131;-96
2024/02/07 10:38:44;;;;;;;1.43;0.57;;;5.80;99.90;;;;;;5024192;23;20169;-96
2024/02/07 10:40:49;;;;;;;1.33;0.60;;;5.80;99.90;;;;;;5045283;23;20234;-96
2024/02/07 10:42:55;;;;;;;8.33;0.67;;;5.80;99.90;;;;;;5023988;23;20158;-95
2024/02/07 10:45:06;;;;;;;0.80;0.40;;;5.70;99.90;;;;;;5024940;23;20582;-95
2024/02/07 10:47:10;;;;;;;5.87;1.00;;;5.60;99.90;;;;;;5023165;23;20281;-94
2024/02/07 10:49:11;;;;;;;8.23;0.60;;;5.60;99.90;;;;;;5022397;23;20594;-93
2024/02/07 10:51:17;;;;;;;6.83;0.47;;;5.50;99.90;;;;;;5046283;23;20159;-95
2024/02/07 10:53:18;;;;;;;0.57;0.50;;;5.40;99.90;;;;;;5023627;23;20155;-95
2024/02/07 10:55:23;;;;;;;1.20;0.10;;;5.40;99.90;;;;;;5021833;23;20167;-94
2024/02/07 10:57:41;;;;;;;1.73;0.53;;;5.40;99.90;;;;;;5022237;23;20178;-96
2024/02/07 10:59:52;;;;;;;0.20;0.20;;;5.40;99.90;;;;;;5022060;23;20604;-96
2024/02/07 11:02:13;;;;;;;;;;;;;;;;;;;;;
2024/02/07 11:04:24;;;;;;;0.20;0.20;;;5.50;99.90;;;;;;5023959;23;20151;-96
2024/02/07 11:07:00;;;;;;;5.13;0.40;;;5.20;99.90;;;;;;5050357;23;20198;-94
2024/02/07 11:09:43;;;;;;;6.47;0.70;;;5.20;99.90;;;;;;5050592;23;20510;-96
2024/02/07 11:12:02;;;;;;;2.53;0.30;;;5.10;99.90;;;;;;5047510;23;20150;-95
2024/02/07 11:14:36;;;;;;;3.20;0.57;;;5.00;99.90;;;;;;5023746;23;20177;-96
2024/02/07 11:17:00;;;;;;;2.33;0.83;;;5.10;99.90;;;;;;5044198;23;20196;-95
2024/02/07 11:23:09;;;;;;;2.67;0.57;;;5.20;99.90;;;;;;5044215;23;20158;-96
2024/02/07 11:25:26;;;;;;;5.30;0.87;;;5.30;99.90;;;;;;4958745;23;20160;-96
2024/02/07 11:27:40;;;;;;;8.53;1.10;;;5.30;99.90;;;;;;5046150;23;20190;-96
2024/02/07 11:32:51;;;;;;;0.63;0.50;;;5.30;99.90;;;;;;5032346;23;20174;-96
2024/02/07 11:34:55;;;;;;;3.10;1.53;;;5.20;99.90;;;;;;5023278;23;20162;-96
2024/02/07 11:37:15;;;;;;;;;;;;;;;;;;;;;
2024/02/07 11:41:58;;;;;;;3.27;1.60;;;5.30;99.90;;;;;;4974401;23;20543;-96
2024/02/07 11:44:34;;;;;;;3.00;0.67;;;5.50;99.90;;;;;;5069737;23;20153;-96
2024/02/07 11:46:54;;;;;;;3.70;0.60;;;5.60;99.90;;;;;;5024441;23;20209;-96
2024/02/07 11:49:01;;;;;;;5.73;0.90;;;5.60;99.90;;;;;;5047785;23;20162;-96
2024/02/07 11:51:16;;;;;;;1.70;0.50;;;5.60;99.90;;;;;;5049116;23;20158;-95
2024/02/07 11:53:32;;;;;;;1.13;0.50;;;5.70;99.90;;;;;;5022986;23;20158;-95
2024/02/07 11:55:57;;;;;;;6.93;0.83;;;6.00;99.90;;;;;;5045375;23;20161;-96
2024/02/07 11:58:06;;;;;;;4.73;0.73;;;5.90;99.90;;;;;;5022074;23;20178;-95
2024/02/07 12:00:30;;;;;;;11.23;1.20;;;6.00;99.90;;;;;;5046148;23;20141;-95
2024/02/07 12:02:34;;;;;;;0.40;0.40;;;6.30;99.90;;;;;;5024116;23;20183;-95
2024/02/07 12:04:44;;;;;;;4.97;0.97;;;6.30;99.90;;;;;;5047392;23;20154;-96
2024/02/07 12:07:01;;;;;;;6.33;1.07;;;6.30;99.90;;;;;;5044724;23;20194;-96
2024/02/07 12:09:05;;;;;;;6.50;0.93;;;6.20;99.90;;;;;;5021585;23;20170;-96
2024/02/07 12:11:12;;;;;;;3.73;1.00;;;6.00;99.90;;;;;;5020943;23;20518;-96
2024/02/07 12:13:13;;;;;;;2.50;0.70;;;5.80;99.90;;;;;;5021807;23;20319;-95
2024/02/07 12:15:14;;;;;;;3.83;0.97;;;5.80;99.90;;;;;;5021528;23;20150;-96
2024/02/07 12:17:16;;;;;;;8.10;0.97;;;5.80;99.90;;;;;;5023107;23;20183;-95
2024/02/07 12:19:17;;;;;;;3.53;0.57;;;5.80;99.90;;;;;;5046306;23;20142;-96
2024/02/07 12:21:24;;;;;;;2.33;0.67;;;6.00;99.90;;;;;;5021673;23;20661;-96
2024/02/07 12:23:25;;;;;;;4.07;0.87;;;6.00;99.90;;;;;;5046685;23;20217;-96
2024/02/07 12:25:27;;;;;;;0.80;0.60;;;6.00;99.90;;;;;;5022773;23;20518;-96
2024/02/07 12:27:34;;;;;;;2.17;0.73;;;6.20;99.90;;;;;;5047094;23;20228;-96
2024/02/07 12:29:40;;;;;;;5.20;0.77;;;6.40;99.90;;;;;;5021296;23;20302;-96
2024/02/07 12:31:48;;;;;;;0.87;0.60;;;6.10;99.90;;;;;;5023560;23;20503;-96
2024/02/07 12:33:54;;;;;;;2.53;1.20;;;6.00;99.90;;;;;;5044590;23;20161;-96
2024/02/07 12:36:09;;;;;;;3.23;1.10;;;6.20;99.90;;;;;;5045548;23;20162;-96
2024/02/07 12:38:18;;;;;;;2.03;1.10;;;6.00;99.90;;;;;;5024429;23;20170;-96
2024/02/07 12:40:33;;;;;;;1.93;0.60;;;6.00;99.90;;;;;;5022252;23;20619;-96
2024/02/07 12:42:47;;;;;;;2.50;0.90;;;6.10;99.90;;;;;;5020935;23;20238;-96
2024/02/07 12:44:53;;;;;;;6.77;0.70;;;6.20;99.90;;;;;;5045657;23;20150;-95
2024/02/07 12:46:57;;;;;;;1.77;0.70;;;6.30;99.90;;;;;;5021998;23;20281;-96
2024/02/07 12:49:12;;;;;;;3.03;1.53;;;6.30;99.90;;;;;;5047574;23;20150;-96
2024/02/07 12:51:29;;;;;;;3.73;0.97;;;6.30;99.90;;;;;;5048045;23;20168;-96
2024/02/07 12:54:04;;;;;;;1.43;0.37;;;6.10;99.90;;;;;;5047028;23;20466;-96
2024/02/07 12:56:23;;;;;;;5.20;0.70;;;6.00;99.90;;;;;;5047539;23;20157;-95
2024/02/07 12:58:53;;;;;;;0.70;0.70;;;6.10;99.90;;;;;;5050796;23;20161;-95
2024/02/07 13:01:08;;;;;;;1.03;0.57;;;6.10;99.90;;;;;;5027386;23;20151;-96
2024/02/07 13:03:10;;;;;;;1.03;0.40;;;5.90;99.90;;;;;;5041256;23;20139;-94
2024/02/07 13:05:12;;;;;;;5.47;1.07;;;5.90;99.90;;;;;;5039549;23;20186;-96
2024/02/07 13:07:27;;;;;;;0.53;0.33;;;5.80;99.90;;;;;;5022383;23;20202;-96
2024/02/07 13:09:33;;;;;;;0.10;0.10;;;5.70;99.90;;;;;;5022487;23;20155;-96
2024/02/07 13:11:40;;;;;;;0.30;0.20;;;5.60;99.90;;;;;;5023306;23;20183;-96
2024/02/07 13:14:20;;;;;;;0.10;0.10;;;5.50;99.90;;;;;;5047305;23;20655;-96
2024/02/07 13:16:50;;;;;;;;;;;;;;;;;;;;;
2024/02/07 13:19:06;;;;;;;1.23;0.53;;;5.40;99.90;;;;;;5048375;23;20166;-96
2024/02/07 13:21:12;;;;;;;1.10;0.37;;;5.30;99.90;;;;;;5047239;23;20169;-96
2024/02/07 13:23:32;;;;;;;0.27;0.20;;;5.40;99.90;;;;;;5047936;23;20599;-96
2024/02/07 13:26:21;;;;;;;0.03;0.00;;;5.50;99.90;;;;;;5027618;23;20157;-96
2024/02/07 13:28:36;;;;;;;1.30;0.37;;;5.50;99.90;;;;;;5023991;23;20246;-96
2024/02/07 13:31:23;;;;;;;;;;;;;;;;;;;;;
2024/02/07 13:36:53;;;;;;;0.33;0.20;;;5.40;99.90;;;;;;5048447;23;20493;-96
2024/02/07 13:39:27;;;;;;;0.33;0.10;;;5.40;99.90;;;;;;5024695;23;20214;-96
2024/02/07 13:41:52;;;;;;;0.20;0.20;;;5.60;99.90;;;;;;5045987;23;20253;-96
2024/02/07 13:43:59;;;;;;;0.87;0.60;;;5.60;99.90;;;;;;5024871;23;20131;-96
2024/02/07 13:46:02;;;;;;;0.93;0.40;;;5.60;99.90;;;;;;5071253;23;20605;-96
2024/02/07 13:48:06;;;;;;;3.53;0.47;;;5.60;99.90;;;;;;5047176;23;20643;-95
2024/02/07 13:50:09;;;;;;;1.97;0.60;;;5.50;99.90;;;;;;5048167;23;20728;-96
2024/02/07 13:52:13;;;;;;;0.60;0.27;;;5.50;99.90;;;;;;5022568;23;20151;-95
2024/02/07 13:54:14;;;;;;;1.60;0.83;;;5.40;99.90;;;;;;5023112;23;20602;-95
2024/02/07 13:56:15;;;;;;;4.47;1.13;;;5.40;99.90;;;;;;5023243;23;20233;-94
2024/02/07 13:58:19;;;;;;;1.30;0.57;;;5.40;99.90;;;;;;5047436;23;20178;-95
2024/02/07 14:00:23;;;;;;;0.77;0.30;;;5.50;99.90;;;;;;5045483;23;20150;-95
2024/02/07 14:02:28;;;;;;;0.47;0.40;;;5.60;99.90;;;;;;5023429;23;20482;-95
2024/02/07 14:04:32;;;;;;;0.97;0.77;;;5.60;99.90;;;;;;5045985;23;20241;-96
2024/02/07 14:06:33;;;;;;;2.87;0.40;;;5.50;99.90;;;;;;5046323;23;20276;-96